Open Text ROE 2010-2024 | OTEX

Current and historical return on equity (ROE) values for Open Text (OTEX) over the last 10 years. Return on equity can be defined as the amount of net income returned as a percentage of shareholders equity. Return on equity measures a corporation's profitability by revealing how much profit a company generates with the money shareholders have invested.
Open Text ROE - Return on Equity Historical Data
Date TTM Net Income Shareholder's Equity Return on Equity
2024-03-31 $0.17B $4.13B 4.15%
2023-12-31 $0.13B $4.03B 3.16%
2023-09-30 $0.35B $4.01B 8.55%
2023-06-30 $0.15B $4.02B 3.72%
2023-03-31 $0.30B $4.12B 7.47%
2022-12-31 $0.32B $4.12B 7.92%
2022-09-30 $0.15B $3.85B 3.68%
2022-06-30 $0.40B $4.03B 9.67%
2022-03-31 $0.48B $4.06B 11.54%
2021-12-31 $0.49B $4.13B 11.95%
2021-09-30 $0.34B $4.21B 8.30%
2021-06-30 $0.31B $4.10B 7.65%
2021-03-31 $0.16B $4.03B 3.85%
2020-12-31 $0.09B $4.00B 2.24%
2020-09-30 $0.26B $4.07B 6.52%
2020-06-30 $0.23B $4.01B 5.86%
2020-03-31 $0.28B $4.00B 7.07%
2019-12-31 $0.33B $4.00B 8.34%
2019-09-30 $0.32B $3.91B 8.38%
2019-06-30 $0.29B $3.89B 7.48%
2019-03-31 $0.28B $3.84B 7.30%
2018-12-31 $0.26B $3.79B 6.99%
2018-09-30 $0.24B $3.73B 6.55%
2018-06-30 $0.24B $3.72B 6.65%
2018-03-31 $0.23B $3.70B 6.30%
2017-12-31 $0.19B $3.63B 5.34%
2017-09-30 $0.15B $3.57B 4.26%
2017-06-30 $1.03B $3.53B 30.61%
2017-03-31 $1.07B $3.50B 35.98%
2016-12-31 $1.11B $3.49B 43.40%
2016-09-30 $1.16B $2.88B 53.63%
2016-06-30 $0.28B $1.98B 15.04%
2016-03-31 $0.27B $1.91B 14.42%
2015-12-31 $0.23B $1.85B 12.37%
2015-09-30 $0.21B $1.81B 11.76%
2015-06-30 $0.24B $1.83B 13.31%
2015-03-31 $0.25B $1.78B 14.78%
2014-12-31 $0.27B $1.76B 16.39%
2014-09-30 $0.25B $1.70B 16.04%
2014-06-30 $0.22B $1.64B 14.66%
2014-03-31 $0.17B $1.57B 12.21%
2013-12-31 $0.15B $1.41B 11.33%
2013-09-30 $0.16B $1.36B 12.16%
2013-06-30 $0.15B $1.34B 11.58%
2013-03-31 $0.11B $1.30B 9.20%
2012-12-31 $0.12B $1.27B 10.18%
2012-09-30 $0.11B $1.21B 9.30%
2012-06-30 $0.13B $1.18B 10.98%
2012-03-31 $0.15B $1.18B 13.23%
2011-12-31 $0.15B $1.13B 13.86%
2011-09-30 $0.14B $1.07B 13.46%
2011-06-30 $0.12B $1.04B 12.64%
2011-03-31 $0.15B $1.01B 15.60%
2010-12-31 $0.12B $0.96B 13.67%
2010-09-30 $0.11B $0.92B 12.23%
2010-06-30 $0.09B $0.89B 10.22%
2010-03-31 $0.06B $0.86B 6.78%
2009-12-31 $0.06B $0.86B 8.54%
Sector Industry Market Cap Revenue
Computer and Technology Computer Software $8.261B $4.485B
Open Text Corporation is engaged in development of innovative intranet, extranet and e-Business applications. Since creating one of the first search engines to index the World Wide Web, the company has remained at the forefront of Internet-based technologies. Open Text solutions allow individuals, teams, organizations, and global trading communities to collaborate on projects, share ideas and accelerate innovation to the fastest possible speed. Open Text Corporation is headquartered in Waterloo, Canada.
Stock Name Country Market Cap PE Ratio
Microsoft (MSFT) United States $3272.965B 38.13
Oracle (ORCL) United States $380.391B 30.88
Adobe (ADBE) United States $246.907B 39.95
Salesforce (CRM) United States $239.682B 35.69
Intuit (INTU) United States $178.203B 55.53
Synopsys (SNPS) United States $85.859B 59.17
Cadence Design Systems (CDNS) United States $75.687B 71.98
Autodesk (ADSK) United States $52.328B 47.70
Dassault Systemes SA (DASTY) France $49.469B 32.14
MicroStrategy (MSTR) United States $27.585B 0.00
ANSYS (ANSS) United States $27.558B 51.00
PTC (PTC) United States $21.077B 55.90
SS&C Technologies Holdings (SSNC) United States $16.724B 15.84
Manhattan Associates (MANH) United States $13.487B 71.58
Descartes Systems Group (DSGX) Canada $8.417B 70.41
Trend Micro (TMICY) Japan $6.332B 45.86
CommVault Systems (CVLT) United States $5.304B 85.94
Pegasystems (PEGA) United States $5.069B 44.83
ACI Worldwide (ACIW) United States $4.408B 21.12
Blackbaud (BLKB) United States $3.975B 34.22
Progress Software (PRGS) United States $2.414B 15.50
Sapiens (SPNS) Israel $2.149B 29.31
Verint Systems (VRNT) United States $2.055B 19.25
BlackBerry (BB) Canada $1.423B 0.00
PROS Holdings (PRO) United States $1.115B 0.00
Simulations Plus (SLP) United States $0.828B 61.73
Rand Worldwide (RWWI) United States $0.663B 0.00
Magic Software Enterprises (MGIC) Israel $0.552B 11.72
Canaan (CAN) China $0.331B 0.00
American Software (AMSWA) United States $0.323B 27.77
Rigetti Computing (RGTI) United States $0.187B 0.00
OptimizeRx (OPRX) United States $0.186B 0.00
Neonode (NEON) Sweden $0.049B 0.00
Icad Inc (ICAD) United States $0.036B 0.00
NetSol Technologies (NTWK) United States $0.032B 0.00
Wetouch Technology (WETH) $0.028B 0.00
Smith Micro Software (SMSI) United States $0.022B 0.00
Hanryu Holdings (HRYU) South Korea $0.015B 0.00
GSE Systems (GVP) United States $0.011B 0.00
SAP SE (SAP) Germany $0.000B 50.44